Аэропорт: Казань. Казань

ICAO: UWKD

METAR:
2018/05/20 19:30
UWKD 201930Z 36006MPS 9999 OVC022 10/04 Q1019 R29/CLRD70 NOSIG RMK QFE753/1005
METAR:
2018/05/20 18:24
TAF UWKD 201650Z 2018/2118 35005MPS 9999 BKN015 TX22/2110Z TN07/2103Z 
      TEMPO 2018/2024 SCT011 
      BECMG 2100/2101 03006MPS